KF5CFW Weather Reports


time (UTC)temp
F
wind
direction
speed
knots
gust
knots
rain 1hr
in
rain 24hr
in
rain mn
in
humidity
%
barometer
mb
20201125143049 47 342 0.0 0.9 0.00 0.76 0.00 75 1018.5
20201125141538 46 278 0.0 1.7 0.00 0.76 0.00 76 1018.3
20201125140046 45 309 0.0 0.9 0.00 0.76 0.00 78 1018.1
20201125134538 45 249 0.0 0.9 0.00 0.76 0.00 80 1018.1
20201125131535 44 269 0.0 0.0 0.00 0.76 0.00 82 1017.6
20201125130020 44 257 0.0 0.0 0.00 0.76 0.00 82 1017.3
20201125124518 44 245 0.0 0.9 0.00 0.76 0.00 82 1017.1
20201125123100 44 255 0.0 0.0 0.00 0.76 0.00 82 1017.0
20201125121523 44 256 0.0 0.9 0.00 0.76 0.00 82 1016.9
20201125120032 45 240 0.0 0.9 0.00 0.76 0.00 82 1016.7
20201125114515 45 276 0.0 0.9 0.00 0.76 0.00 82 1016.3
20201125111709 45 255 0.0 0.9 0.00 0.76 0.00 82 1016.1
20201125110243 45 245 0.0 0.9 0.00 0.76 0.00 82 1016.1
20201125104737 45 244 0.0 0.9 0.00 0.76 0.00 81 1016.0
20201125103300 46 243 0.0 0.0 0.00 0.76 0.00 81 1016.0
20201125101803 46 193 0.0 0.9 0.00 0.76 0.00 80 1015.8
20201125100119 46 232 0.0 0.9 0.00 0.76 0.00 80 1015.8
20201125094701 47 264 0.0 0.9 0.00 0.76 0.00 80 1015.8
20201125093230 47 294 0.0 0.9 0.00 0.76 0.00 79 1015.7
20201125091655 48 286 0.0 0.9 0.00 0.76 0.00 79 1015.4
20201125090301 48 269 0.0 0.9 0.00 0.76 0.00 77 1015.1
20201125084549 48 352 0.0 1.7 0.00 0.76 0.00 78 1015.0
20201125083123 49 345 0.0 0.9 0.00 0.76 0.00 77 1014.9
20201125081737 49 332 0.0 1.7 0.00 0.76 0.00 76 1014.7
20201125080119 50 312 0.0 2.6 0.00 0.76 0.00 75 1014.5
20201125074540 51 291 0.9 4.3 0.00 0.76 0.00 73 1014.2
20201125073035 53 290 0.0 2.6 0.00 0.76 0.00 76 1013.6
20201125071532 54 319 0.0 0.9 0.00 0.76 0.00 81 1013.5
20201125070057 55 284 0.0 1.7 0.00 0.76 0.00 83 1012.9
20201125064531 55 284 0.0 1.7 0.00 0.76 0.00 84 1012.5
20201125063027 55 322 0.0 1.7 0.00 0.76 0.00 86 1012.2
20201125061515 55 314 0.0 2.6 0.00 0.76 0.00 87 1011.9
20201125060044 56 304 0.0 2.6 0.00 0.76 0.00 89 1011.7
20201125054526 57 287 0.0 0.9 0.00 0.76 0.76 93 1011.2
20201125053023 58 288 0.0 0.9 0.00 0.76 0.76 95 1010.2
20201125051512 59 276 0.0 0.0 0.00 0.76 0.76 96 1009.8
20201125050009 59 274 0.0 0.0 0.00 0.76 0.76 96 1009.3
20201125044514 60 274 0.0 0.0 0.00 0.76 0.76 96 1008.8